createdAt,value
2018-02-05T00:01:13.271Z,6.59
2018-02-05T00:03:41.636Z,6.36
2018-02-05T00:06:10.001Z,6.53
2018-02-05T00:08:38.376Z,6.55
2018-02-05T00:11:06.724Z,6.23
2018-02-05T00:13:35.572Z,6.38
2018-02-05T00:16:04.014Z,6.14
2018-02-05T00:18:32.392Z,5.93
2018-02-05T00:21:00.735Z,6.24
2018-02-05T00:23:29.584Z,6.39
2018-02-05T00:25:57.976Z,6.68
2018-02-05T00:28:26.344Z,7.05
2018-02-05T00:30:54.727Z,6.54
2018-02-05T00:33:23.079Z,5.91
2018-02-05T00:35:51.562Z,6.67
2018-02-05T00:38:19.908Z,7.14
2018-02-05T00:40:48.835Z,6.56
2018-02-05T00:43:17.186Z,6.45
2018-02-05T00:45:45.938Z,6.48
2018-02-05T00:48:14.397Z,6.65
2018-02-05T00:50:42.782Z,7.13
2018-02-05T00:53:11.259Z,7.10
2018-02-05T00:55:39.618Z,7.28
2018-02-05T00:58:08.030Z,7.42
2018-02-05T01:00:36.374Z,7.38
2018-02-05T01:03:04.771Z,7.17
2018-02-05T01:05:33.154Z,6.89
2018-02-05T01:08:01.508Z,7.11
2018-02-05T01:10:29.863Z,6.96
2018-02-05T01:12:58.596Z,6.57
2018-02-05T01:15:26.976Z,6.92
2018-02-05T01:17:55.326Z,6.85
2018-02-05T01:20:23.707Z,6.98
2018-02-05T01:22:52.113Z,7.00
2018-02-05T01:25:20.467Z,6.78
2018-02-05T01:27:48.833Z,7.08
2018-02-05T01:30:17.259Z,7.10
2018-02-05T01:32:45.726Z,7.22
2018-02-05T01:35:14.108Z,6.95
2018-02-05T01:37:42.490Z,7.25
2018-02-05T01:40:10.871Z,7.15
2018-02-05T01:42:39.216Z,7.22
2018-02-05T01:45:07.603Z,7.19
2018-02-05T01:47:35.964Z,6.84
2018-02-05T01:50:04.307Z,6.69
2018-02-05T01:52:32.680Z,6.51
2018-02-05T01:55:01.027Z,6.55
2018-02-05T01:57:29.396Z,6.96
2018-02-05T01:59:57.794Z,6.61
2018-02-05T02:02:26.175Z,6.45
2018-02-05T02:04:54.545Z,6.96
2018-02-05T02:07:22.890Z,6.70
2018-02-05T02:09:51.263Z,7.11
2018-02-05T02:12:20.015Z,7.28
2018-02-05T02:14:48.379Z,6.68
2018-02-05T02:17:16.758Z,6.98
2018-02-05T02:19:45.147Z,7.30
2018-02-05T02:22:13.510Z,6.76
2018-02-05T02:24:41.892Z,6.46
2018-02-05T02:27:10.241Z,6.90
2018-02-05T02:29:38.651Z,7.17
2018-02-05T02:32:07.035Z,7.36
2018-02-05T02:34:35.513Z,6.90
2018-02-05T02:37:03.878Z,5.98
2018-02-05T02:39:32.236Z,6.17
2018-02-05T02:44:28.728Z,5.99
2018-02-05T02:46:57.195Z,5.25
2018-02-05T02:49:25.585Z,5.66
2018-02-05T02:51:53.982Z,6.02
2018-02-05T02:54:22.351Z,5.85
2018-02-05T02:56:50.696Z,5.29
2018-02-05T02:59:19.508Z,5.92
2018-02-05T03:01:47.863Z,6.27
2018-02-05T03:04:16.211Z,5.67
2018-02-05T03:06:44.969Z,5.88
2018-02-05T03:09:13.322Z,5.84
2018-02-05T03:11:41.699Z,6.17
2018-02-05T03:14:10.053Z,5.86
2018-02-05T03:16:38.463Z,6.01
2018-02-05T03:19:06.838Z,6.35
2018-02-05T03:21:35.187Z,5.70
2018-02-05T03:24:03.571Z,5.85
2018-02-05T03:26:31.915Z,5.84
2018-02-05T03:29:00.662Z,5.81
2018-02-05T03:31:29.031Z,5.52
2018-02-05T03:33:57.385Z,6.04
2018-02-05T03:36:26.871Z,6.04
2018-02-05T03:38:55.623Z,5.94
2018-02-05T03:41:23.976Z,6.23
2018-02-05T03:43:52.376Z,5.92
2018-02-05T03:46:20.732Z,6.20
2018-02-05T03:48:49.769Z,6.25
2018-02-05T03:51:18.230Z,5.66
2018-02-05T03:53:46.584Z,5.55
2018-02-05T03:56:14.979Z,5.81
2018-02-05T03:58:43.358Z,5.56
2018-02-05T04:01:11.852Z,5.89
2018-02-05T04:03:40.207Z,5.84
2018-02-05T04:06:08.595Z,6.10
2018-02-05T04:08:36.980Z,6.04
2018-02-05T04:11:05.472Z,6.01
2018-02-05T04:13:33.863Z,5.79
2018-02-05T04:16:02.336Z,6.22
2018-02-05T04:18:30.692Z,6.36
2018-02-05T04:20:59.048Z,5.87
2018-02-05T04:23:27.452Z,6.15
2018-02-05T04:25:55.911Z,6.00
2018-02-05T04:28:24.320Z,5.67
2018-02-05T04:30:52.667Z,5.84
2018-02-05T04:33:21.067Z,5.79
2018-02-05T04:35:49.560Z,5.39
2018-02-05T04:38:17.927Z,5.37
2018-02-05T04:40:46.317Z,5.18
2018-02-05T04:43:14.688Z,5.35
2018-02-05T04:45:43.044Z,5.52
2018-02-05T04:48:11.391Z,5.66
2018-02-05T04:50:40.155Z,4.84
2018-02-05T04:53:08.591Z,4.45
2018-02-05T04:55:36.983Z,4.55
2018-02-05T04:58:05.348Z,4.56
2018-02-05T05:00:33.832Z,4.38
2018-02-05T05:03:02.181Z,4.22
2018-02-05T05:05:31.020Z,4.31
2018-02-05T05:07:59.378Z,4.63
2018-02-05T05:10:27.740Z,4.65
2018-02-05T05:12:56.104Z,4.68
2018-02-05T05:15:24.953Z,5.17
2018-02-05T05:17:53.314Z,4.80
2018-02-05T05:20:21.694Z,4.80
2018-02-05T05:22:50.074Z,4.84
2018-02-05T05:25:18.432Z,4.89
2018-02-05T05:27:46.782Z,5.21
2018-02-05T05:30:15.537Z,5.03
2018-02-05T05:32:43.883Z,4.32
2018-02-05T05:35:12.240Z,4.60
2018-02-05T05:37:40.993Z,4.66
2018-02-05T05:40:09.358Z,4.66
2018-02-05T05:42:37.814Z,4.72
2018-02-05T05:45:06.159Z,4.35
2018-02-05T05:47:34.996Z,4.55
2018-02-05T05:50:03.347Z,4.74
2018-02-05T05:52:31.731Z,4.91
2018-02-05T05:55:00.089Z,4.69
2018-02-05T05:57:28.837Z,4.33
2018-02-05T05:59:57.220Z,4.69
2018-02-05T06:02:25.679Z,4.47
2018-02-05T06:04:54.029Z,4.57
2018-02-05T06:07:22.387Z,4.17
2018-02-05T06:09:51.135Z,4.22
2018-02-05T06:12:19.501Z,3.78
2018-02-05T06:14:47.846Z,3.96
2018-02-05T06:17:16.196Z,3.92
2018-02-05T06:19:45.050Z,3.89
2018-02-05T06:22:13.403Z,3.93
2018-02-05T06:24:41.751Z,4.04
2018-02-05T06:27:10.494Z,4.44
2018-02-05T06:29:39.123Z,4.38
2018-02-05T06:32:07.978Z,4.57
2018-02-05T06:34:36.335Z,4.86
2018-02-05T06:37:04.711Z,5.06
2018-02-05T06:39:33.079Z,5.08
2018-02-05T06:42:01.432Z,4.68
2018-02-05T06:44:30.188Z,4.65
2018-02-05T06:46:58.534Z,4.49
2018-02-05T06:49:26.899Z,4.18
2018-02-05T06:52:13.103Z,3.82
2018-02-05T06:54:59.303Z,4.20
2018-02-05T06:57:27.647Z,4.32
2018-02-05T06:59:56.407Z,4.51
2018-02-05T07:02:24.751Z,4.16
2018-02-05T07:04:53.090Z,4.52
2018-02-05T07:07:21.835Z,4.79
2018-02-05T07:09:50.180Z,5.09
2018-02-05T07:12:18.559Z,5.28
2018-02-05T07:14:46.964Z,5.47
2018-02-05T07:17:15.384Z,5.33
2018-02-05T07:19:44.235Z,5.18
2018-02-05T07:22:12.589Z,5.63
2018-02-05T07:24:41.388Z,5.78
2018-02-05T07:27:09.759Z,6.42
2018-02-05T07:29:38.147Z,7.43
2018-02-05T07:32:07.412Z,7.68
2018-02-05T07:34:35.813Z,7.57
2018-02-05T07:37:04.203Z,7.61
2018-02-05T07:39:32.615Z,7.87
2018-02-05T07:42:01.010Z,8.29
2018-02-05T07:44:29.347Z,8.39
2018-02-05T07:46:57.711Z,8.39
2018-02-05T07:49:26.052Z,7.86
2018-02-05T07:51:54.792Z,7.84
2018-02-05T07:54:23.179Z,7.90
2018-02-05T07:56:51.524Z,7.53
2018-02-05T07:59:19.927Z,6.85
2018-02-05T08:01:48.280Z,6.53
2018-02-05T08:04:16.640Z,6.65
2018-02-05T08:06:45.488Z,6.97
2018-02-05T08:09:13.836Z,6.79
2018-02-05T08:11:42.208Z,6.48
2018-02-05T08:14:10.591Z,6.82
2018-02-05T08:16:38.943Z,7.22
2018-02-05T08:19:07.699Z,7.61
2018-02-05T08:21:36.055Z,7.06
2018-02-05T08:24:04.419Z,7.57
2018-02-05T08:26:32.792Z,7.81
2018-02-05T08:29:01.160Z,7.23
2018-02-05T08:31:29.521Z,7.11
2018-02-05T08:33:58.407Z,7.42
2018-02-05T08:36:26.943Z,6.65
2018-02-05T08:38:55.344Z,6.60
2018-02-05T08:41:23.697Z,7.10
2018-02-05T08:43:52.042Z,6.50
2018-02-05T08:46:20.461Z,6.88
2018-02-05T08:48:48.803Z,7.13
2018-02-05T08:51:17.164Z,7.03
2018-02-05T08:53:45.908Z,7.21
2018-02-05T08:56:14.252Z,7.34
2018-02-05T08:58:42.609Z,8.16
2018-02-05T09:01:11.480Z,8.61
2018-02-05T09:03:40.331Z,8.53
2018-02-05T09:06:08.711Z,8.23
2018-02-05T09:08:37.056Z,7.98
2018-02-05T09:11:05.892Z,8.26
2018-02-05T09:13:34.231Z,8.40
2018-02-05T09:16:02.793Z,8.59
2018-02-05T09:18:31.528Z,8.56
2018-02-05T09:20:59.880Z,7.61
2018-02-05T09:23:28.224Z,6.97
2018-02-05T09:25:56.669Z,7.00
2018-02-05T09:28:25.010Z,6.52
2018-02-05T09:30:53.747Z,6.66
2018-02-05T09:33:22.107Z,7.16
2018-02-05T09:35:50.459Z,8.72
2018-02-05T09:38:18.872Z,9.96
2018-02-05T09:40:47.224Z,11.14
2018-02-05T09:43:15.632Z,12.07
2018-02-05T09:45:44.007Z,12.21
2018-02-05T09:48:12.368Z,12.79
2018-02-05T09:50:40.773Z,13.52
2018-02-05T09:53:09.154Z,14.10
2018-02-05T09:55:37.632Z,14.22
2018-02-05T09:58:05.990Z,13.97
2018-02-05T10:00:34.340Z,14.72
2018-02-05T10:03:03.087Z,14.23
2018-02-05T10:05:31.456Z,14.12
2018-02-05T10:07:59.838Z,14.15
2018-02-05T10:10:28.196Z,14.91
2018-02-05T10:12:56.567Z,14.38
2018-02-05T10:15:24.964Z,14.32
2018-02-05T10:17:53.355Z,14.49
2018-02-05T10:20:21.704Z,14.05
2018-02-05T10:22:50.076Z,14.17
2018-02-05T10:25:18.424Z,13.27
2018-02-05T10:27:47.234Z,11.44
2018-02-05T10:30:15.660Z,11.43
2018-02-05T10:32:44.012Z,11.85
2018-02-05T10:35:12.396Z,12.07
2018-02-05T10:37:40.765Z,12.00
2018-02-05T10:40:09.133Z,12.65
2018-02-05T10:42:37.601Z,12.62
2018-02-05T10:45:05.967Z,12.92
2018-02-05T10:47:34.759Z,12.20
2018-02-05T10:50:03.600Z,12.74
2018-02-05T10:52:32.197Z,13.44
2018-02-05T10:55:00.540Z,13.82
2018-02-05T10:57:28.897Z,14.58
2018-02-05T10:59:57.728Z,14.32
2018-02-05T11:02:26.093Z,13.37
2018-02-05T11:04:54.492Z,12.83
2018-02-05T11:07:22.871Z,12.06
2018-02-05T11:09:51.223Z,12.14
2018-02-05T11:12:19.590Z,12.78
2018-02-05T11:14:48.004Z,12.10
2018-02-05T11:17:16.376Z,10.82
2018-02-05T11:19:44.728Z,10.97
2018-02-05T11:22:13.141Z,11.74
2018-02-05T11:24:41.520Z,12.48
2018-02-05T11:27:09.907Z,11.82
2018-02-05T11:29:38.259Z,11.76
2018-02-05T11:32:06.621Z,11.20
2018-02-05T11:34:34.976Z,11.47
2018-02-05T11:37:03.726Z,10.86
2018-02-05T11:39:32.088Z,10.44
2018-02-05T11:42:00.440Z,10.26
2018-02-05T11:44:28.855Z,10.10
2018-02-05T11:46:57.231Z,10.07
2018-02-05T11:49:25.617Z,9.69
2018-02-05T11:51:54.014Z,9.15
2018-02-05T11:54:22.597Z,8.58
2018-02-05T11:56:51.638Z,8.85
2018-02-05T11:59:20.012Z,8.53
2018-02-05T12:01:48.364Z,7.18
2018-02-05T12:04:16.739Z,6.42
2018-02-05T12:06:45.152Z,6.76
2018-02-05T12:09:13.569Z,6.50
2018-02-05T12:11:41.920Z,6.96
2018-02-05T12:14:10.272Z,6.70
2018-02-05T12:16:39.112Z,7.50
2018-02-05T12:19:07.576Z,7.56
2018-02-05T12:21:38.016Z,8.06
2018-02-05T12:24:06.371Z,7.90
2018-02-05T12:26:34.795Z,6.75
2018-02-05T12:29:03.155Z,6.88
2018-02-05T12:31:32.029Z,6.71
2018-02-05T12:34:00.375Z,6.24
2018-02-05T12:36:29.211Z,6.90
2018-02-05T12:38:57.576Z,6.42
2018-02-05T12:41:25.971Z,7.11
2018-02-05T12:43:54.336Z,7.14
2018-02-05T12:46:22.688Z,6.87
2018-02-05T12:48:51.111Z,6.41
2018-02-05T12:51:19.460Z,6.62
2018-02-05T12:53:47.805Z,6.85
2018-02-05T12:56:16.569Z,6.51
2018-02-05T12:58:44.932Z,6.23
2018-02-05T13:04:40.645Z,5.99
2018-02-05T13:07:09.012Z,6.06
2018-02-05T13:09:37.355Z,6.28
2018-02-05T13:12:05.804Z,6.51
2018-02-05T13:14:34.183Z,6.58
2018-02-05T13:17:02.536Z,7.04
2018-02-05T13:19:30.899Z,7.00
2018-02-05T13:21:59.317Z,6.62
2018-02-05T13:24:27.667Z,6.83
2018-02-05T13:26:56.025Z,6.67
2018-02-05T13:29:24.871Z,6.71
2018-02-05T13:31:53.228Z,6.82
2018-02-05T13:34:21.584Z,6.87
2018-02-05T13:36:49.935Z,7.00
2018-02-05T13:39:18.588Z,7.50
2018-02-05T13:41:46.964Z,7.24
2018-02-05T13:44:15.315Z,6.78
2018-02-05T13:46:43.651Z,6.46
2018-02-05T13:49:12.115Z,7.32
2018-02-05T13:51:40.487Z,6.92
2018-02-05T13:54:08.852Z,6.55
2018-02-05T13:56:37.236Z,6.50
2018-02-05T13:59:05.602Z,5.36
2018-02-05T14:01:33.944Z,5.94
2018-02-05T14:04:02.712Z,6.57
2018-02-05T14:06:31.068Z,6.36
2018-02-05T14:08:59.421Z,6.82
2018-02-05T14:11:27.825Z,6.67
2018-02-05T14:13:56.164Z,6.26
2018-02-05T14:16:24.522Z,6.10
2018-02-05T14:18:58.832Z,6.30
2018-02-05T14:21:27.580Z,6.63
2018-02-05T14:23:55.919Z,6.77
2018-02-05T14:26:24.280Z,6.75
2018-02-05T14:28:53.065Z,6.35
2018-02-05T14:31:21.812Z,6.80
2018-02-05T14:33:50.166Z,7.27
2018-02-05T14:36:18.567Z,6.63
2018-02-05T14:38:46.940Z,6.08
2018-02-05T14:41:15.419Z,6.35
2018-02-05T14:43:43.777Z,6.06
2018-02-05T14:46:12.182Z,5.81
2018-02-05T14:48:40.515Z,5.98
2018-02-05T14:51:09.354Z,5.61
2018-02-05T14:53:37.736Z,6.03
2018-02-05T14:56:06.116Z,5.84
2018-02-05T14:58:34.599Z,5.61
2018-02-05T15:01:02.964Z,5.50
2018-02-05T15:03:31.354Z,5.59
2018-02-05T15:05:59.732Z,5.61
2018-02-05T15:08:28.076Z,5.39
2018-02-05T15:10:56.434Z,5.20
2018-02-05T15:13:25.262Z,5.71
2018-02-05T15:15:53.657Z,5.94
2018-02-05T15:18:22.024Z,5.80
2018-02-05T15:20:50.398Z,5.89
2018-02-05T15:23:18.758Z,5.29
2018-02-05T15:25:47.102Z,5.29
2018-02-05T15:28:15.560Z,5.64
2018-02-05T15:30:43.924Z,5.38
2018-02-05T15:33:12.288Z,5.40
2018-02-05T15:35:40.692Z,5.35
2018-02-05T15:38:09.062Z,5.57
2018-02-05T15:40:37.407Z,5.44
2018-02-05T15:43:05.748Z,4.30
2018-02-05T15:45:34.133Z,4.28
2018-02-05T15:48:02.592Z,5.03
2018-02-05T15:50:30.998Z,5.41
2018-02-05T15:52:59.744Z,5.03
2018-02-05T15:55:28.140Z,4.97
2018-02-05T15:57:56.508Z,4.73
2018-02-05T16:00:24.880Z,4.76
2018-02-05T16:02:53.266Z,4.49
2018-02-05T16:05:21.608Z,4.41
2018-02-05T16:07:50.034Z,4.85
2018-02-05T16:10:18.757Z,4.65
2018-02-05T16:12:47.515Z,4.81
2018-02-05T16:15:15.875Z,4.60
2018-02-05T16:17:44.251Z,4.50
2018-02-05T16:20:12.663Z,4.47
2018-02-05T16:22:41.111Z,4.50
2018-02-05T16:25:09.468Z,4.28
2018-02-05T16:27:37.807Z,4.60
2018-02-05T16:30:06.656Z,4.49
2018-02-05T16:32:35.040Z,4.51
2018-02-05T16:35:03.416Z,4.66
2018-02-05T16:37:31.776Z,4.43
2018-02-05T16:40:00.189Z,4.35
2018-02-05T16:42:28.656Z,4.21
2018-02-05T16:44:57.036Z,4.42
2018-02-05T16:47:25.413Z,4.13
2018-02-05T16:49:53.780Z,4.40
2018-02-05T16:52:22.351Z,3.99
2018-02-05T16:54:50.772Z,4.12
2018-02-05T16:57:19.138Z,3.95
2018-02-05T16:59:47.484Z,3.69
2018-02-05T17:02:15.944Z,3.89
2018-02-05T17:04:44.717Z,3.96
2018-02-05T17:07:13.156Z,4.03
2018-02-05T17:09:41.512Z,3.95
2018-02-05T17:12:09.924Z,3.68
2018-02-05T17:14:38.297Z,3.73
2018-02-05T17:17:06.649Z,4.03
2018-02-05T17:19:35.064Z,4.16
2018-02-05T17:22:03.430Z,4.04
2018-02-05T17:24:31.787Z,3.87
2018-02-05T17:27:00.298Z,4.20
2018-02-05T17:29:28.712Z,4.15
2018-02-05T17:31:57.517Z,4.20
2018-02-05T17:34:26.252Z,3.83
2018-02-05T17:36:54.616Z,4.28
2018-02-05T17:39:22.960Z,4.11
2018-02-05T17:41:51.398Z,4.03
2018-02-05T17:44:19.866Z,3.96
2018-02-05T17:46:48.219Z,3.77
2018-02-05T17:49:16.699Z,3.65
2018-02-05T17:51:45.111Z,3.84
2018-02-05T17:54:13.474Z,4.07
2018-02-05T17:56:41.856Z,4.00
2018-02-05T17:59:10.204Z,4.00
2018-02-05T18:01:38.552Z,3.93
2018-02-05T18:04:07.342Z,3.84
2018-02-05T18:06:36.199Z,4.07
2018-02-05T18:09:04.591Z,3.47
2018-02-05T18:11:33.080Z,3.59
2018-02-05T18:14:01.435Z,3.97
2018-02-05T18:16:29.779Z,3.67
2018-02-05T18:18:58.136Z,3.84
2018-02-05T18:21:27.013Z,3.79
2018-02-05T18:23:55.471Z,3.91
2018-02-05T18:26:23.834Z,4.00
2018-02-05T18:28:52.207Z,4.16
2018-02-05T18:31:20.602Z,4.29
2018-02-05T18:33:48.979Z,4.16
2018-02-05T18:36:17.342Z,4.23
2018-02-05T18:38:45.690Z,4.27
2018-02-05T18:41:14.627Z,4.11
2018-02-05T18:43:43.012Z,3.85
2018-02-05T18:46:11.356Z,3.61
2018-02-05T18:48:39.763Z,3.90
2018-02-05T18:51:08.159Z,3.61
2018-02-05T18:53:36.539Z,3.91
2018-02-05T18:56:04.915Z,3.66
2018-02-05T18:58:33.295Z,3.19
2018-02-05T19:01:01.648Z,3.31
2018-02-05T19:03:30.009Z,3.22
2018-02-05T19:05:58.441Z,3.39
2018-02-05T19:08:26.996Z,3.02
2018-02-05T19:10:55.353Z,3.28
2018-02-05T19:13:23.835Z,3.18
2018-02-05T19:15:52.248Z,3.34
2018-02-05T19:18:20.618Z,3.57
2018-02-05T19:20:48.973Z,3.59
2018-02-05T19:23:17.317Z,3.86
2018-02-05T19:25:46.111Z,3.78
2018-02-05T19:28:14.860Z,3.89
2018-02-05T19:30:43.247Z,3.85
2018-02-05T19:33:11.605Z,3.80
2018-02-05T19:35:39.966Z,3.99
2018-02-05T19:38:08.362Z,3.73
2018-02-05T19:40:36.885Z,3.86
2018-02-05T19:43:05.635Z,3.80
2018-02-05T19:45:33.994Z,3.89
2018-02-05T19:48:02.359Z,4.28
2018-02-05T19:50:30.711Z,4.18
2018-02-05T19:52:59.580Z,3.88
2018-02-05T19:55:27.937Z,3.59
2018-02-05T19:57:56.318Z,3.75
2018-02-05T20:00:24.684Z,3.62
2018-02-05T20:02:53.087Z,3.77
2018-02-05T20:05:21.495Z,3.77
2018-02-05T20:07:50.400Z,3.50
2018-02-05T20:10:18.752Z,3.43
2018-02-05T20:12:47.113Z,3.85
2018-02-05T20:15:15.461Z,3.60
2018-02-05T20:17:43.856Z,3.45
2018-02-05T20:20:12.205Z,3.41
2018-02-05T20:22:41.124Z,3.48
2018-02-05T20:25:09.505Z,3.95
2018-02-05T20:27:37.849Z,3.77
2018-02-05T20:30:06.205Z,4.12
2018-02-05T20:32:34.966Z,3.66
2018-02-05T20:35:03.335Z,3.78
2018-02-05T20:37:31.703Z,3.99
2018-02-05T20:40:00.119Z,4.04
2018-02-05T20:42:28.901Z,3.83
2018-02-05T20:44:57.259Z,3.90
2018-02-05T20:47:25.711Z,4.04
2018-02-05T20:49:54.052Z,4.06
2018-02-05T20:52:22.813Z,4.18
2018-02-05T20:54:51.166Z,4.07
2018-02-05T20:57:19.557Z,4.11
2018-02-05T20:59:53.645Z,4.10
2018-02-05T21:02:22.012Z,4.05
2018-02-05T21:04:50.364Z,4.06
2018-02-05T21:07:19.133Z,3.73
2018-02-05T21:09:47.606Z,4.11
2018-02-05T21:12:15.973Z,4.20
2018-02-05T21:14:44.347Z,4.15
2018-02-05T21:17:12.705Z,4.11
2018-02-05T21:19:41.116Z,4.04
2018-02-05T21:22:09.462Z,4.01
2018-02-05T21:24:37.869Z,4.09
2018-02-05T21:27:06.216Z,4.10
2018-02-05T21:29:34.584Z,4.10
2018-02-05T21:32:02.985Z,4.13
2018-02-05T21:34:31.347Z,3.76
2018-02-05T21:36:59.703Z,3.91
2018-02-05T21:39:28.447Z,3.97
2018-02-05T21:41:56.837Z,3.93
2018-02-05T21:44:25.188Z,3.86
2018-02-05T21:46:53.626Z,3.85
2018-02-05T21:49:22.388Z,3.79
2018-02-05T21:51:50.760Z,3.81
2018-02-05T21:54:19.124Z,3.92
2018-02-05T21:56:47.498Z,3.90
2018-02-05T21:59:15.892Z,3.97
2018-02-05T22:01:44.251Z,4.06
2018-02-05T22:04:12.616Z,4.04
2018-02-05T22:06:40.994Z,3.98
2018-02-05T22:09:09.385Z,3.86
2018-02-05T22:11:37.888Z,3.93
2018-02-05T22:14:06.264Z,3.93
2018-02-05T22:16:34.617Z,3.92
2018-02-05T22:19:02.996Z,3.86
2018-02-05T22:21:31.356Z,3.84
2018-02-05T22:23:59.760Z,4.04
2018-02-05T22:26:28.156Z,3.94
2018-02-05T22:28:56.547Z,3.85
2018-02-05T22:31:24.916Z,3.86
2018-02-05T22:33:53.278Z,3.88
2018-02-05T22:36:22.492Z,3.75
2018-02-05T22:38:50.880Z,3.68
2018-02-05T22:41:19.253Z,3.86
2018-02-05T22:43:47.635Z,3.96
2018-02-05T22:46:15.996Z,3.79
2018-02-05T22:48:44.373Z,3.76
2018-02-05T22:51:12.750Z,3.84
2018-02-05T22:53:41.113Z,3.96
2018-02-05T22:56:09.471Z,4.00
2018-02-05T22:58:38.232Z,3.83
2018-02-05T23:01:06.584Z,4.05
2018-02-05T23:03:34.964Z,4.04
2018-02-05T23:06:03.339Z,3.85
2018-02-05T23:08:31.729Z,3.94
2018-02-05T23:11:00.110Z,3.99
2018-02-05T23:13:28.479Z,4.06
2018-02-05T23:15:56.864Z,4.11
2018-02-05T23:18:25.239Z,3.90
2018-02-05T23:20:53.644Z,3.89
2018-02-05T23:23:21.999Z,4.05
2018-02-05T23:25:50.483Z,4.10
2018-02-05T23:28:18.846Z,4.09
2018-02-05T23:30:47.192Z,4.07
2018-02-05T23:33:15.624Z,4.11
2018-02-05T23:35:43.996Z,4.18
2018-02-05T23:38:12.357Z,4.10
2018-02-05T23:40:40.775Z,4.21
2018-02-05T23:43:09.152Z,4.22
2018-02-05T23:45:37.515Z,4.13
2018-02-05T23:48:05.891Z,4.08
2018-02-05T23:50:34.249Z,4.05
2018-02-05T23:53:02.677Z,4.01
2018-02-05T23:55:31.132Z,3.85
2018-02-05T23:57:59.481Z,3.71
